Time;durP1;ratioP1;P1;durP2;ratioP2;P2;SDS_P1;SDS_P2;PMS_P1;PMS_P2;Temp;Humidity;BMP_temperature;BMP_pressure;BME280_temperature;BME280_humidity;BME280_pressure;Samples;Min_cycle;Max_cycle;Signal;HPM_P1;HPM_P2
2022/03/25 00:01:29;;;;;;;8.30;5.82;;;20.50;79.90;;;;;;4206742;28;20214;-71
2022/03/25 00:03:31;;;;;;;12.30;6.50;;;20.50;80.50;;;;;;4207289;28;20268;-71
2022/03/25 00:05:33;;;;;;;10.80;6.00;;;20.50;80.70;;;;;;4206885;28;21410;-71
2022/03/25 00:07:36;;;;;;;12.52;6.20;;;20.50;80.30;;;;;;4208944;28;20214;-71
2022/03/25 00:09:38;;;;;;;11.57;7.13;;;20.40;80.50;;;;;;4207706;28;21744;-72
2022/03/25 00:11:41;;;;;;;9.43;6.50;;;20.50;80.60;;;;;;4207889;28;20209;-71
2022/03/25 00:13:44;;;;;;;11.27;5.70;;;20.50;80.30;;;;;;4206959;28;20214;-72
2022/03/25 00:15:47;;;;;;;10.80;6.18;;;20.40;80.90;;;;;;4206874;28;20747;-71
2022/03/25 00:17:49;;;;;;;15.15;6.60;;;20.40;80.80;;;;;;4207536;28;20291;-71
2022/03/25 00:19:51;;;;;;;9.40;6.15;;;20.40;80.90;;;;;;4207710;28;21269;-71
2022/03/25 00:21:54;;;;;;;14.05;6.30;;;20.40;80.90;;;;;;4206626;28;20244;-72
2022/03/25 00:23:56;;;;;;;10.00;5.80;;;20.30;80.40;;;;;;4207722;28;20219;-72
2022/03/25 00:25:58;;;;;;;10.23;6.13;;;20.40;81.20;;;;;;4207811;28;20679;-72
2022/03/25 00:28:01;;;;;;;10.05;6.28;;;20.40;81.30;;;;;;4207720;28;20222;-72
2022/03/25 00:30:06;;;;;;;11.48;6.13;;;20.40;81.00;;;;;;4207922;28;20291;-72
2022/03/25 00:32:09;;;;;;;15.88;6.43;;;20.30;80.80;;;;;;4208230;28;20222;-72
2022/03/25 00:34:11;;;;;;;10.70;6.20;;;20.40;80.90;;;;;;4207213;28;20214;-71
2022/03/25 00:36:13;;;;;;;10.35;6.47;;;20.30;81.30;;;;;;4208123;28;20206;-71
2022/03/25 00:38:16;;;;;;;9.60;6.38;;;20.30;81.30;;;;;;4209123;28;20260;-71
2022/03/25 00:40:18;;;;;;;11.02;6.82;;;20.30;81.20;;;;;;4210821;28;20268;-71
2022/03/25 00:42:20;;;;;;;8.68;6.18;;;20.30;81.20;;;;;;4210280;28;20210;-71
2022/03/25 00:44:24;;;;;;;10.80;6.85;;;20.30;81.30;;;;;;4209810;28;20267;-72
2022/03/25 00:46:28;;;;;;;10.50;6.45;;;20.30;81.20;;;;;;4211073;28;20662;-71
2022/03/25 00:48:32;;;;;;;10.02;6.70;;;20.30;81.40;;;;;;4209657;28;20271;-71
2022/03/25 00:50:35;;;;;;;13.27;6.32;;;20.30;81.60;;;;;;4210377;28;20218;-72
2022/03/25 00:52:38;;;;;;;11.90;6.68;;;20.30;81.20;;;;;;4210605;28;20218;-71
2022/03/25 00:54:40;;;;;;;10.18;6.55;;;20.30;81.30;;;;;;4207252;28;20635;-71
2022/03/25 00:56:42;;;;;;;11.68;6.40;;;20.30;81.50;;;;;;4210136;28;20260;-71
2022/03/25 00:58:45;;;;;;;9.45;6.63;;;20.30;81.70;;;;;;4210425;28;20291;-71
2022/03/25 01:00:50;;;;;;;11.05;6.82;;;20.20;81.40;;;;;;4210506;28;20256;-71
2022/03/25 01:02:54;;;;;;;12.10;6.95;;;20.20;81.40;;;;;;4207172;28;20211;-71
2022/03/25 01:04:56;;;;;;;13.63;7.10;;;20.20;81.30;;;;;;4209060;28;20670;-72
2022/03/25 01:06:59;;;;;;;9.70;6.75;;;20.20;81.70;;;;;;4210075;28;20260;-72
2022/03/25 01:09:02;;;;;;;8.73;6.47;;;20.20;81.60;;;;;;4209115;28;20270;-71
2022/03/25 01:11:05;;;;;;;10.90;6.53;;;20.20;81.40;;;;;;4207970;28;20264;-72
2022/03/25 01:13:08;;;;;;;12.27;7.05;;;20.20;81.90;;;;;;4210131;28;20219;-71
2022/03/25 01:15:11;;;;;;;10.45;6.72;;;20.20;81.40;;;;;;4209633;28;20983;-72
2022/03/25 01:17:13;;;;;;;11.63;6.82;;;20.20;82.10;;;;;;4209193;28;20230;-71
2022/03/25 01:19:17;;;;;;;10.48;6.65;;;20.20;81.50;;;;;;4210792;28;20219;-72
2022/03/25 01:21:19;;;;;;;11.45;7.07;;;20.20;82.00;;;;;;4209597;28;20267;-72
2022/03/25 01:23:22;;;;;;;10.45;6.38;;;20.20;81.90;;;;;;4210345;28;20260;-71
2022/03/25 01:25:24;;;;;;;9.05;6.75;;;20.10;81.50;;;;;;4210350;28;20647;-71
2022/03/25 01:27:26;;;;;;;9.18;6.47;;;20.20;81.80;;;;;;4210209;28;20257;-71
2022/03/25 01:29:29;;;;;;;9.77;6.63;;;20.10;81.60;;;;;;4206488;28;20667;-72
2022/03/25 01:31:32;;;;;;;10.45;6.90;;;20.10;81.80;;;;;;4209251;28;20268;-71
2022/03/25 01:33:36;;;;;;;13.27;6.97;;;20.10;81.20;;;;;;4209816;28;20283;-71
2022/03/25 01:35:40;;;;;;;9.82;7.32;;;20.10;81.80;;;;;;4210428;28;20307;-71
2022/03/25 01:37:43;;;;;;;10.98;6.82;;;20.10;81.90;;;;;;4210753;28;21717;-71
2022/03/25 01:39:45;;;;;;;12.13;6.65;;;20.10;81.50;;;;;;4213598;28;20214;-71
2022/03/25 01:41:47;;;;;;;8.05;6.40;;;20.10;81.90;;;;;;4213668;28;20618;-71
2022/03/25 01:43:55;;;;;;;9.65;7.30;;;20.10;81.60;;;;;;4213369;28;20222;-71
2022/03/25 01:45:57;;;;;;;9.02;6.30;;;20.00;81.40;;;;;;4211452;28;20218;-72
2022/03/25 01:47:59;;;;;;;11.60;6.78;;;20.10;82.10;;;;;;4213361;28;20214;-71
2022/03/25 01:50:03;;;;;;;10.02;6.63;;;20.10;82.00;;;;;;4213470;28;20215;-71
2022/03/25 01:52:08;;;;;;;14.85;7.35;;;20.10;81.80;;;;;;4212910;28;20563;-72
2022/03/25 01:54:19;;;;;;;11.30;7.88;;;20.10;81.70;;;;;;4211819;28;20255;-72
2022/03/25 01:56:23;;;;;;;11.57;7.65;;;20.10;82.10;;;;;;4213057;28;20232;-71
2022/03/25 01:58:27;;;;;;;9.07;6.78;;;20.10;82.10;;;;;;4209203;28;20615;-71
2022/03/25 02:00:30;;;;;;;9.00;6.93;;;20.00;82.00;;;;;;4209295;28;20218;-72
2022/03/25 02:02:33;;;;;;;10.65;6.82;;;20.00;82.50;;;;;;4213087;28;20210;-71
2022/03/25 02:04:36;;;;;;;10.07;6.70;;;20.00;81.90;;;;;;4206799;28;20214;-71
2022/03/25 02:06:38;;;;;;;10.18;7.50;;;20.00;82.20;;;;;;4210753;28;20272;-71
2022/03/25 02:08:42;;;;;;;10.30;7.53;;;20.00;82.90;;;;;;4212878;28;20254;-72
2022/03/25 02:10:45;;;;;;;10.05;7.45;;;20.00;82.00;;;;;;4212779;28;20240;-72
2022/03/25 02:12:47;;;;;;;10.32;7.30;;;20.00;81.90;;;;;;4211338;28;20215;-71
2022/03/25 02:14:50;;;;;;;13.32;8.32;;;20.00;81.80;;;;;;4212460;28;20222;-71
2022/03/25 02:16:53;;;;;;;11.43;7.22;;;20.00;82.20;;;;;;4205203;28;20915;-72
2022/03/25 02:18:56;;;;;;;11.05;7.40;;;20.00;82.10;;;;;;4208706;28;20674;-72
2022/03/25 02:20:59;;;;;;;11.07;7.22;;;19.90;82.00;;;;;;4209499;28;20994;-71
2022/03/25 02:23:03;;;;;;;10.13;7.18;;;20.00;82.00;;;;;;4210176;28;20218;-71
2022/03/25 02:25:09;;;;;;;11.13;7.95;;;19.90;82.20;;;;;;4209490;28;20276;-71
2022/03/25 02:27:13;;;;;;;9.02;7.57;;;20.00;82.30;;;;;;4208584;28;20219;-71
2022/03/25 02:29:16;;;;;;;12.95;7.55;;;19.90;82.50;;;;;;4209622;28;20219;-72
2022/03/25 02:31:19;;;;;;;11.43;7.22;;;19.90;82.20;;;;;;4209554;28;20245;-72
2022/03/25 02:33:21;;;;;;;11.02;7.05;;;19.90;82.80;;;;;;4209638;28;20300;-72
2022/03/25 02:35:36;;;;;;;11.38;8.02;;;19.90;82.30;;;;;;4209160;28;20219;-72
2022/03/25 02:37:38;;;;;;;11.35;7.53;;;19.90;82.20;;;;;;4209167;28;20287;-71
2022/03/25 02:39:42;;;;;;;12.85;8.32;;;19.90;83.20;;;;;;4209840;28;20218;-71
2022/03/25 02:41:45;;;;;;;13.38;8.00;;;19.90;82.40;;;;;;4208748;28;20222;-72
2022/03/25 02:43:47;;;;;;;11.07;7.57;;;19.90;82.10;;;;;;4208684;28;20219;-72
2022/03/25 02:45:50;;;;;;;10.27;7.90;;;19.90;82.70;;;;;;4209561;28;20214;-71
2022/03/25 02:47:52;;;;;;;13.40;8.15;;;19.90;81.70;;;;;;4208603;28;20214;-72
2022/03/25 02:49:54;;;;;;;10.13;7.30;;;19.90;82.50;;;;;;4209486;28;20256;-72
2022/03/25 02:51:57;;;;;;;10.30;7.38;;;19.80;82.10;;;;;;4206073;28;20222;-73
2022/03/25 02:53:59;;;;;;;11.05;7.63;;;19.80;82.60;;;;;;4208329;28;20368;-73
2022/03/25 02:56:03;;;;;;;11.25;8.20;;;19.80;82.70;;;;;;4209082;28;20219;-72
2022/03/25 02:58:05;;;;;;;9.55;7.55;;;19.80;82.60;;;;;;4206134;28;20255;-72
2022/03/25 03:00:10;;;;;;;14.05;7.85;;;19.80;82.60;;;;;;4209498;28;20686;-72
2022/03/25 03:02:12;;;;;;;12.23;8.45;;;19.80;82.60;;;;;;4209642;28;20263;-73
2022/03/25 03:04:14;;;;;;;9.63;8.00;;;19.80;82.60;;;;;;4208851;28;20222;-72
2022/03/25 03:06:17;;;;;;;10.80;7.55;;;19.80;82.60;;;;;;4207713;28;20222;-72
2022/03/25 03:08:20;;;;;;;11.00;8.50;;;19.80;82.40;;;;;;4209068;28;20712;-73
2022/03/25 03:10:23;;;;;;;11.15;8.05;;;19.80;82.00;;;;;;4208735;28;20257;-73
2022/03/25 03:12:27;;;;;;;13.43;8.27;;;19.80;82.40;;;;;;4207629;28;20226;-72
2022/03/25 03:14:29;;;;;;;10.98;8.05;;;19.80;82.50;;;;;;4207893;28;20759;-72
2022/03/25 03:16:32;;;;;;;10.70;8.00;;;19.80;82.60;;;;;;4209204;28;20633;-72
2022/03/25 03:18:34;;;;;;;11.38;8.70;;;19.80;82.50;;;;;;4208897;28;20287;-73
2022/03/25 03:20:37;;;;;;;10.63;8.13;;;19.80;82.50;;;;;;4209221;28;20252;-73
2022/03/25 03:22:39;;;;;;;11.00;7.47;;;19.80;82.60;;;;;;4209357;28;20296;-72
2022/03/25 03:24:41;;;;;;;11.00;7.65;;;19.80;82.60;;;;;;4206871;28;20283;-73
2022/03/25 03:26:44;;;;;;;10.60;7.85;;;19.70;82.80;;;;;;4207898;28;20218;-73
2022/03/25 03:28:48;;;;;;;14.93;8.60;;;19.80;83.30;;;;;;4208776;28;20215;-73
2022/03/25 03:30:50;;;;;;;10.50;8.32;;;19.70;82.70;;;;;;4208567;28;20292;-72
2022/03/25 03:32:57;;;;;;;10.65;8.18;;;19.70;82.30;;;;;;4208457;28;20289;-73
2022/03/25 03:34:59;;;;;;;11.32;8.57;;;19.70;82.60;;;;;;4208676;28;20215;-73
2022/03/25 03:37:02;;;;;;;11.90;8.35;;;19.80;82.90;;;;;;4208786;28;20219;-73
2022/03/25 03:39:05;;;;;;;10.27;8.23;;;19.70;82.50;;;;;;4208035;28;20245;-71
2022/03/25 03:41:07;;;;;;;11.05;8.32;;;19.70;82.50;;;;;;4208247;28;20218;-71
2022/03/25 03:43:10;;;;;;;11.77;8.63;;;19.70;82.50;;;;;;4208970;28;20595;-71
2022/03/25 03:45:14;;;;;;;13.40;8.90;;;19.70;82.60;;;;;;4208271;28;20218;-71
2022/03/25 03:47:16;;;;;;;13.43;8.57;;;19.70;82.80;;;;;;4208586;28;20647;-72
2022/03/25 03:49:19;;;;;;;11.25;7.88;;;19.70;83.20;;;;;;4208442;28;20207;-71
2022/03/25 03:51:21;;;;;;;13.70;8.57;;;19.70;82.90;;;;;;4208987;28;20218;-71
2022/03/25 03:53:24;;;;;;;11.65;8.35;;;19.70;82.70;;;;;;4208166;28;20264;-71
2022/03/25 03:55:26;;;;;;;11.23;8.70;;;19.60;82.90;;;;;;4208157;28;20609;-72
2022/03/25 03:57:28;;;;;;;12.68;9.15;;;19.70;82.80;;;;;;4208561;28;20219;-71
2022/03/25 03:59:31;;;;;;;12.27;9.60;;;19.70;83.10;;;;;;4207632;28;20307;-72
2022/03/25 04:01:35;;;;;;;14.20;8.95;;;19.70;83.60;;;;;;4206516;28;20218;-72
2022/03/25 04:03:37;;;;;;;13.27;9.25;;;19.60;82.80;;;;;;4207570;28;20218;-72
2022/03/25 04:05:39;;;;;;;12.88;9.05;;;19.70;83.10;;;;;;4207080;28;20621;-72
2022/03/25 04:07:43;;;;;;;12.52;8.70;;;19.70;83.20;;;;;;4206810;28;20218;-71
2022/03/25 04:09:45;;;;;;;14.18;8.77;;;19.60;82.90;;;;;;4208660;28;20222;-72
2022/03/25 04:11:48;;;;;;;11.00;8.60;;;19.60;83.20;;;;;;4208844;28;20744;-71
2022/03/25 04:13:50;;;;;;;13.93;8.65;;;19.60;82.80;;;;;;4207406;28;20260;-71
2022/03/25 04:15:52;;;;;;;13.63;9.48;;;19.60;82.50;;;;;;4207724;28;20214;-71
2022/03/25 04:17:58;;;;;;;12.75;8.85;;;19.60;82.40;;;;;;4208452;28;20214;-72
2022/03/25 04:20:00;;;;;;;10.60;8.95;;;19.60;82.80;;;;;;4207146;28;20843;-71
2022/03/25 04:22:02;;;;;;;12.95;9.20;;;19.60;83.20;;;;;;4208681;28;20217;-72
2022/03/25 04:24:06;;;;;;;13.77;8.82;;;19.60;83.00;;;;;;4208535;28;20218;-72
2022/03/25 04:26:08;;;;;;;12.88;9.40;;;19.60;82.60;;;;;;4208312;28;20623;-71
2022/03/25 04:28:10;;;;;;;14.93;9.98;;;19.60;83.20;;;;;;4207202;28;20210;-72
2022/03/25 04:30:13;;;;;;;11.77;9.38;;;19.60;82.40;;;;;;4205368;28;20331;-72
2022/03/25 04:32:16;;;;;;;11.70;9.05;;;19.50;83.60;;;;;;4207404;28;20259;-72
2022/03/25 04:34:19;;;;;;;12.93;9.02;;;19.50;83.20;;;;;;4206603;28;20218;-71
2022/03/25 04:36:22;;;;;;;12.48;8.63;;;19.60;83.00;;;;;;4208088;28;20218;-72
2022/03/25 04:38:24;;;;;;;12.98;9.52;;;19.60;83.90;;;;;;4205879;28;20226;-72
2022/03/25 04:40:28;;;;;;;11.93;9.23;;;19.60;83.30;;;;;;4204755;28;20728;-71
2022/03/25 04:42:31;;;;;;;13.02;9.48;;;19.50;83.20;;;;;;4207885;28;20592;-72
2022/03/25 04:44:33;;;;;;;11.25;9.30;;;19.50;83.20;;;;;;4207709;28;20457;-72
2022/03/25 04:46:36;;;;;;;16.17;10.25;;;19.60;82.80;;;;;;4205363;28;20675;-72
2022/03/25 04:48:38;;;;;;;13.88;9.95;;;19.50;83.20;;;;;;4208225;28;20210;-71
2022/03/25 04:50:43;;;;;;;13.40;9.82;;;19.50;83.10;;;;;;4206932;28;20222;-71
2022/03/25 04:52:46;;;;;;;15.73;9.68;;;19.50;83.20;;;;;;4208284;28;20214;-72
2022/03/25 04:54:49;;;;;;;12.55;9.13;;;19.50;83.30;;;;;;4206735;28;20580;-71
2022/03/25 04:56:51;;;;;;;11.80;9.82;;;19.50;82.70;;;;;;4207585;28;20206;-71
2022/03/25 04:58:53;;;;;;;14.23;9.73;;;19.40;82.80;;;;;;4207391;28;20238;-72
2022/03/25 05:00:55;;;;;;;13.73;9.75;;;19.50;82.90;;;;;;4208024;28;20222;-71
2022/03/25 05:02:58;;;;;;;12.13;9.93;;;19.40;82.50;;;;;;4207264;28;20210;-71
2022/03/25 05:05:00;;;;;;;11.70;9.52;;;19.50;83.10;;;;;;4207804;28;20214;-72
2022/03/25 05:07:05;;;;;;;14.00;9.20;;;19.50;83.30;;;;;;4207195;28;20241;-72
2022/03/25 05:09:09;;;;;;;11.77;9.73;;;19.50;83.10;;;;;;4207989;28;20214;-71
2022/03/25 05:11:11;;;;;;;12.18;10.30;;;19.50;82.90;;;;;;4206224;28;20613;-72
2022/03/25 05:13:14;;;;;;;10.63;9.43;;;19.40;83.10;;;;;;4209332;28;20231;-71
2022/03/25 05:15:17;;;;;;;13.52;9.75;;;19.50;82.50;;;;;;4210994;28;20218;-72
2022/03/25 05:17:19;;;;;;;16.88;10.15;;;19.40;82.70;;;;;;4210926;28;20272;-72
2022/03/25 05:19:21;;;;;;;12.07;9.57;;;19.40;83.20;;;;;;4211419;28;20291;-71
2022/03/25 05:21:23;;;;;;;15.27;9.65;;;19.40;82.80;;;;;;4212117;28;20226;-71
2022/03/25 05:23:27;;;;;;;12.88;9.95;;;19.40;82.70;;;;;;4212938;28;20272;-71
2022/03/25 05:25:30;;;;;;;13.13;10.25;;;19.40;83.10;;;;;;4212570;28;20230;-71
2022/03/25 05:27:32;;;;;;;16.20;9.90;;;19.40;83.40;;;;;;4209945;28;20207;-71
2022/03/25 05:29:35;;;;;;;11.73;9.82;;;19.40;82.50;;;;;;4213040;28;20655;-71
2022/03/25 05:31:38;;;;;;;12.50;9.93;;;19.40;82.70;;;;;;4213233;28;20279;-71
2022/03/25 05:33:40;;;;;;;14.77;10.35;;;19.40;82.50;;;;;;4213482;28;20267;-72
2022/03/25 05:35:43;;;;;;;13.00;10.80;;;19.40;82.70;;;;;;4212013;28;20226;-71
2022/03/25 05:37:45;;;;;;;15.57;10.60;;;19.40;82.70;;;;;;4211387;28;20230;-71
2022/03/25 05:39:49;;;;;;;16.52;10.05;;;19.30;82.40;;;;;;4212950;28;20276;-72
2022/03/25 05:41:51;;;;;;;14.50;10.20;;;19.40;83.10;;;;;;4211167;28;20272;-71
2022/03/25 05:43:54;;;;;;;12.52;10.40;;;19.30;83.10;;;;;;4212602;28;20856;-71
2022/03/25 05:45:56;;;;;;;16.08;10.85;;;19.40;83.40;;;;;;4212945;28;20264;-71
2022/03/25 05:47:59;;;;;;;15.63;9.95;;;19.30;83.30;;;;;;4212497;28;20222;-72
2022/03/25 05:50:01;;;;;;;13.70;10.57;;;19.30;82.70;;;;;;4213331;28;20659;-72
2022/03/25 05:52:05;;;;;;;18.17;10.93;;;19.30;83.50;;;;;;4213064;28;20248;-72
2022/03/25 05:54:07;;;;;;;13.90;10.80;;;19.30;83.20;;;;;;4210990;28;21134;-73
2022/03/25 05:56:12;;;;;;;14.15;10.93;;;19.30;82.50;;;;;;4212552;28;20210;-72
2022/03/25 05:58:14;;;;;;;11.50;10.30;;;19.30;83.00;;;;;;4212664;28;20210;-72
2022/03/25 06:00:17;;;;;;;12.10;9.85;;;19.40;83.50;;;;;;4210379;28;20239;-72
2022/03/25 06:02:20;;;;;;;14.30;10.07;;;19.30;83.20;;;;;;4210887;28;20268;-72
2022/03/25 06:04:22;;;;;;;13.77;10.25;;;19.30;82.80;;;;;;4212570;28;20214;-72
2022/03/25 06:06:25;;;;;;;13.82;10.98;;;19.30;83.30;;;;;;4212804;28;20272;-73
2022/03/25 06:08:27;;;;;;;11.25;9.93;;;19.40;83.30;;;;;;4212184;28;20211;-72
2022/03/25 06:10:29;;;;;;;11.45;9.82;;;19.30;83.30;;;;;;4211765;28;20214;-72
2022/03/25 06:12:33;;;;;;;16.92;10.18;;;19.30;83.60;;;;;;4212994;28;20214;-72
2022/03/25 06:14:36;;;;;;;14.32;10.98;;;19.40;83.60;;;;;;4211742;28;20222;-72
2022/03/25 06:16:39;;;;;;;14.73;10.68;;;19.30;83.50;;;;;;4212838;28;20283;-71
2022/03/25 06:18:41;;;;;;;15.68;11.00;;;19.30;83.10;;;;;;4207755;28;20260;-72
2022/03/25 06:20:43;;;;;;;13.02;10.82;;;19.30;83.00;;;;;;4211364;28;21037;-72
2022/03/25 06:22:48;;;;;;;12.65;10.18;;;19.40;83.60;;;;;;4213057;28;20271;-71
2022/03/25 06:24:51;;;;;;;16.70;11.10;;;19.30;83.70;;;;;;4212533;28;20226;-71
2022/03/25 06:26:53;;;;;;;14.25;10.65;;;19.40;84.30;;;;;;4210211;28;20215;-71
2022/03/25 06:28:57;;;;;;;14.52;10.35;;;19.30;83.50;;;;;;4211462;28;20226;-72
2022/03/25 06:30:59;;;;;;;15.90;10.88;;;19.30;83.50;;;;;;4211598;28;20226;-72
2022/03/25 06:33:02;;;;;;;13.88;11.23;;;19.40;83.70;;;;;;4212704;28;20275;-72
2022/03/25 06:35:07;;;;;;;14.45;11.30;;;19.40;83.60;;;;;;4209532;28;20276;-72
2022/03/25 06:37:09;;;;;;;13.82;11.00;;;19.40;84.00;;;;;;4211462;28;20267;-71
2022/03/25 06:39:11;;;;;;;12.32;10.57;;;19.40;83.60;;;;;;4212294;28;20264;-72
2022/03/25 06:41:14;;;;;;;14.45;10.80;;;19.40;83.60;;;;;;4211698;28;20234;-71
2022/03/25 06:43:16;;;;;;;16.15;10.85;;;19.40;83.40;;;;;;4211138;28;20222;-72
2022/03/25 06:45:20;;;;;;;14.15;11.38;;;19.40;83.60;;;;;;4212112;28;20263;-71
2022/03/25 06:47:22;;;;;;;17.63;11.85;;;19.40;83.60;;;;;;4210350;28;20218;-72
2022/03/25 06:49:25;;;;;;;15.82;12.48;;;19.40;83.80;;;;;;4211633;28;20275;-71
2022/03/25 06:51:28;;;;;;;16.02;11.35;;;19.40;83.50;;;;;;4211954;28;20267;-71
2022/03/25 06:53:31;;;;;;;14.68;11.07;;;19.40;83.70;;;;;;4211723;28;20236;-71
2022/03/25 06:55:34;;;;;;;14.07;11.38;;;19.40;83.60;;;;;;4211640;28;20324;-72
2022/03/25 06:57:37;;;;;;;15.90;11.57;;;19.40;83.90;;;;;;4211926;28;20230;-71
2022/03/25 06:59:41;;;;;;;14.27;10.27;;;19.40;83.60;;;;;;4211217;28;20630;-71
2022/03/25 07:01:45;;;;;;;14.95;10.90;;;19.40;84.00;;;;;;4212181;28;20219;-71
2022/03/25 07:03:48;;;;;;;16.73;10.20;;;19.40;83.70;;;;;;4210361;28;20266;-71
2022/03/25 07:05:52;;;;;;;14.50;10.77;;;19.50;83.70;;;;;;4207236;28;20275;-71
2022/03/25 07:07:55;;;;;;;13.15;10.73;;;19.50;84.00;;;;;;4212228;28;20222;-71
2022/03/25 07:09:58;;;;;;;11.40;10.15;;;19.40;83.90;;;;;;4211251;28;20267;-71
2022/03/25 07:12:02;;;;;;;16.83;11.25;;;19.40;84.10;;;;;;4211566;28;20226;-71
2022/03/25 07:14:04;;;;;;;12.95;10.80;;;19.40;83.70;;;;;;4212197;28;20260;-71
2022/03/25 07:16:06;;;;;;;15.13;10.70;;;19.40;84.00;;;;;;4211834;28;20264;-72
2022/03/25 07:18:10;;;;;;;12.90;10.80;;;19.40;84.90;;;;;;4212016;28;20346;-71
2022/03/25 07:20:14;;;;;;;13.80;10.40;;;19.50;84.20;;;;;;4210521;28;20284;-71
2022/03/25 07:22:17;;;;;;;14.60;10.80;;;19.50;85.40;;;;;;4211027;28;20222;-71
2022/03/25 07:24:20;;;;;;;16.80;11.07;;;19.50;84.70;;;;;;4211608;28;20622;-71
2022/03/25 07:26:22;;;;;;;12.98;10.45;;;19.50;84.60;;;;;;4209369;28;20313;-71
2022/03/25 07:28:24;;;;;;;15.43;10.77;;;19.40;84.20;;;;;;4207166;28;20206;-72
2022/03/25 07:30:28;;;;;;;14.52;11.10;;;19.50;84.30;;;;;;4209973;28;20271;-71
2022/03/25 07:32:30;;;;;;;12.52;9.95;;;19.50;84.10;;;;;;4208320;28;20265;-71
2022/03/25 07:34:36;;;;;;;15.25;10.38;;;19.40;83.80;;;;;;4209862;28;20207;-71
2022/03/25 07:36:38;;;;;;;14.98;10.40;;;19.40;84.60;;;;;;4209281;28;20263;-71
2022/03/25 07:38:41;;;;;;;13.15;9.77;;;19.50;84.80;;;;;;4203947;28;20218;-72
2022/03/25 07:40:44;;;;;;;17.25;11.13;;;19.50;85.00;;;;;;4210633;28;20291;-72
2022/03/25 07:42:47;;;;;;;13.90;10.75;;;19.50;84.40;;;;;;4208770;28;20222;-72
2022/03/25 07:44:49;;;;;;;12.55;10.27;;;19.40;84.60;;;;;;4202218;28;20222;-72
2022/03/25 07:46:52;;;;;;;26.20;16.70;;;19.50;84.50;;;;;;4202163;28;22339;-71
2022/03/25 07:48:54;;;;;;;34.55;23.08;;;19.40;82.70;;;;;;4202299;28;20214;-70
2022/03/25 07:50:59;;;;;;;39.10;25.27;;;19.00;79.90;;;;;;4198263;28;20319;-70
2022/03/25 07:53:01;;;;;;;42.20;29.98;;;18.30;80.40;;;;;;4204165;28;20222;-70
2022/03/25 07:55:04;;;;;;;45.15;28.70;;;17.80;79.80;;;;;;4200657;28;20276;-72
2022/03/25 07:57:07;;;;;;;46.97;29.55;;;17.60;80.80;;;;;;4199312;28;20625;-72
2022/03/25 07:59:11;;;;;;;29.67;21.63;;;17.40;80.70;;;;;;4205032;28;20260;-72
2022/03/25 08:01:16;;;;;;;24.77;19.25;;;17.60;83.40;;;;;;4205670;28;20686;-72
2022/03/25 08:03:19;;;;;;;27.45;17.98;;;18.20;83.70;;;;;;4207688;28;20260;-73
2022/03/25 08:05:23;;;;;;;25.92;20.00;;;18.50;83.40;;;;;;4209089;28;20275;-75
2022/03/25 08:07:27;;;;;;;24.05;17.17;;;18.70;82.50;;;;;;4204881;28;20214;-73
2022/03/25 08:09:29;;;;;;;22.98;16.67;;;18.90;83.00;;;;;;4210859;28;20215;-75
2022/03/25 08:11:32;;;;;;;21.75;15.60;;;19.10;83.90;;;;;;4209085;28;20214;-74
2022/03/25 08:13:34;;;;;;;21.85;15.20;;;19.30;83.50;;;;;;4212234;28;20221;-74
2022/03/25 08:15:37;;;;;;;21.30;14.73;;;19.30;82.90;;;;;;4210869;28;20271;-73
2022/03/25 08:17:46;;;;;;;20.10;14.88;;;19.40;82.80;;;;;;4207949;28;20287;-73
2022/03/25 08:19:51;;;;;;;21.55;14.43;;;19.50;83.00;;;;;;4209137;28;20225;-73
2022/03/25 08:21:54;;;;;;;22.63;14.10;;;19.50;82.80;;;;;;4209230;28;20230;-72
2022/03/25 08:28:39;;;;;;;22.23;14.38;;;19.70;82.90;;;;;;4206055;28;20199;-72
2022/03/25 08:30:42;;;;;;;20.52;13.25;;;19.80;83.10;;;;;;4207093;28;20267;-72
2022/03/25 08:32:45;;;;;;;18.88;13.40;;;19.80;83.20;;;;;;4210848;28;20233;-72
2022/03/25 08:34:47;;;;;;;20.83;13.73;;;19.80;83.20;;;;;;4204065;28;20267;-71
2022/03/25 08:36:51;;;;;;;20.33;13.52;;;19.80;83.30;;;;;;4204272;28;20723;-72
2022/03/25 08:38:53;;;;;;;19.27;13.93;;;19.90;83.50;;;;;;4201792;28;20720;-73
2022/03/25 08:40:57;;;;;;;18.63;12.90;;;19.90;83.60;;;;;;4208395;28;20235;-73
2022/03/25 08:43:01;;;;;;;19.67;13.02;;;20.00;83.80;;;;;;4209148;28;20248;-71
2022/03/25 08:45:07;;;;;;;18.67;12.35;;;20.00;83.70;;;;;;4209901;28;20218;-71
2022/03/25 08:47:10;;;;;;;20.13;12.30;;;20.00;83.70;;;;;;4208751;28;20727;-73
2022/03/25 08:49:12;;;;;;;18.13;12.27;;;20.10;83.90;;;;;;4213726;28;20210;-73
2022/03/25 08:51:15;;;;;;;14.50;12.02;;;20.00;84.00;;;;;;4207432;28;20215;-74
2022/03/25 08:53:17;;;;;;;21.60;12.32;;;20.10;84.10;;;;;;4210202;28;20271;-72
2022/03/25 08:55:21;;;;;;;17.05;11.38;;;20.10;84.30;;;;;;4206645;28;20214;-73
2022/03/25 08:57:25;;;;;;;18.83;11.85;;;20.10;84.30;;;;;;4210098;28;20218;-73
2022/03/25 08:59:28;;;;;;;18.95;11.88;;;20.20;84.40;;;;;;4213582;28;20674;-72
2022/03/25 09:01:30;;;;;;;16.15;12.18;;;20.20;84.30;;;;;;4209081;28;20256;-73
2022/03/25 09:03:32;;;;;;;21.52;11.68;;;20.20;84.50;;;;;;4212231;28;20620;-72
2022/03/25 09:05:35;;;;;;;21.73;11.45;;;20.20;84.50;;;;;;4209458;28;20238;-74
2022/03/25 09:07:42;;;;;;;18.95;11.85;;;20.30;84.60;;;;;;4212940;28;20226;-72
2022/03/25 09:09:44;;;;;;;18.17;11.52;;;20.30;84.50;;;;;;4203870;28;20218;-72
2022/03/25 09:11:46;;;;;;;18.98;11.85;;;20.30;84.60;;;;;;4203112;28;20214;-72
2022/03/25 09:13:54;;;;;;;16.70;11.10;;;20.30;84.70;;;;;;4205736;28;20644;-73
2022/03/25 09:16:07;;;;;;;15.05;11.38;;;20.30;84.80;;;;;;4211112;28;20222;-73
2022/03/25 09:18:10;;;;;;;16.98;11.23;;;20.40;84.70;;;;;;4206989;28;20219;-72
2022/03/25 09:20:13;;;;;;;16.45;10.93;;;20.40;85.30;;;;;;4209649;28;20700;-77
2022/03/25 09:22:16;;;;;;;16.38;11.23;;;20.40;85.10;;;;;;4210401;28;20244;-71
2022/03/25 09:24:19;;;;;;;17.98;11.60;;;20.40;85.40;;;;;;4209268;28;20728;-74
2022/03/25 09:26:23;;;;;;;18.90;11.50;;;20.40;85.40;;;;;;4209666;28;20612;-73
2022/03/25 09:28:25;;;;;;;18.65;12.77;;;20.40;85.50;;;;;;4210170;28;20234;-73
2022/03/25 09:30:29;;;;;;;15.90;11.23;;;20.30;85.90;;;;;;4207806;28;20210;-73
2022/03/25 09:32:31;;;;;;;19.42;12.07;;;20.30;86.00;;;;;;4209952;28;20210;-72
2022/03/25 09:36:55;;;;;;;17.88;11.60;;;20.40;87.00;;;;;;4208801;28;20613;-73
2022/03/25 09:38:57;;;;;;;16.48;12.50;;;20.40;86.00;;;;;;4206389;28;20686;-73
2022/03/25 09:41:03;;;;;;;18.33;11.63;;;20.40;85.90;;;;;;4202137;28;20222;-73
2022/03/25 09:43:06;;;;;;;13.40;11.15;;;20.50;86.80;;;;;;4206418;28;20218;-73
2022/03/25 09:45:10;;;;;;;17.23;12.20;;;20.40;86.30;;;;;;4210317;28;20218;-72
2022/03/25 09:47:16;;;;;;;16.27;12.20;;;20.50;87.30;;;;;;4209125;28;20236;-72
2022/03/25 09:49:20;;;;;;;19.33;11.55;;;20.40;88.20;;;;;;4200458;28;20221;-72
2022/03/25 09:51:23;;;;;;;17.23;11.85;;;20.30;86.60;;;;;;4206859;28;20214;-73
2022/03/25 09:53:29;;;;;;;20.60;11.85;;;20.40;88.40;;;;;;4207231;28;20211;-72
2022/03/25 09:55:33;;;;;;;20.35;11.50;;;20.50;88.60;;;;;;4205277;28;20227;-72
2022/03/25 09:57:36;;;;;;;17.35;11.07;;;20.50;86.20;;;;;;4208743;28;20843;-73
2022/03/25 09:59:38;;;;;;;22.85;11.80;;;20.40;87.50;;;;;;4205675;28;20206;-72
2022/03/25 10:01:41;;;;;;;15.75;10.82;;;20.40;87.40;;;;;;4209455;28;20248;-71
2022/03/25 10:03:45;;;;;;;18.52;11.63;;;20.50;86.80;;;;;;4207914;28;20268;-72
2022/03/25 10:05:58;;;;;;;20.30;12.25;;;20.50;86.20;;;;;;4207118;28;20287;-73
2022/03/25 10:08:00;;;;;;;18.20;11.38;;;20.50;86.10;;;;;;4207375;28;20267;-73
2022/03/25 10:10:11;;;;;;;19.52;11.43;;;20.50;86.20;;;;;;4207366;28;20211;-72
2022/03/25 10:12:24;;;;;;;15.65;10.68;;;20.40;86.90;;;;;;4209038;28;20252;-71
2022/03/25 10:14:29;;;;;;;16.40;10.57;;;20.50;87.20;;;;;;4207927;28;20288;-72
2022/03/25 10:16:32;;;;;;;16.67;10.65;;;20.50;85.90;;;;;;4205587;28;20215;-72
2022/03/25 10:18:34;;;;;;;13.05;9.52;;;20.50;86.40;;;;;;4207109;28;20263;-72
2022/03/25 10:20:42;;;;;;;18.15;10.80;;;20.50;87.00;;;;;;4207503;28;20346;-73
2022/03/25 10:23:09;;;;;;;16.13;9.45;;;20.60;87.50;;;;;;4204815;28;20283;-73
2022/03/25 10:25:13;;;;;;;15.50;9.63;;;20.40;86.80;;;;;;4208352;28;20218;-73
2022/03/25 10:27:20;;;;;;;18.88;10.13;;;20.50;87.60;;;;;;4207798;28;20247;-72
2022/03/25 10:29:23;;;;;;;13.13;9.40;;;20.60;86.80;;;;;;4206138;28;20214;-73
2022/03/25 10:31:25;;;;;;;13.73;9.88;;;20.60;86.50;;;;;;4207209;28;20785;-72
2022/03/25 10:33:32;;;;;;;11.57;9.10;;;20.60;86.70;;;;;;4207332;28;20203;-72
2022/03/25 10:35:52;;;;;;;13.07;9.60;;;20.60;87.50;;;;;;4209451;28;20222;-72
2022/03/25 10:37:59;;;;;;;16.25;8.77;;;20.60;86.80;;;;;;4207692;28;20199;-72